createdAt,value
2022-10-10T00:01:36.558Z,3.22
2022-10-10T00:04:05.823Z,2.84
2022-10-10T00:06:33.536Z,-0.61
2022-10-10T00:09:01.854Z,3.15
2022-10-10T00:11:29.138Z,-3.93
2022-10-10T00:13:56.124Z,3.26
2022-10-10T00:16:23.219Z,3.12
2022-10-10T00:18:50.355Z,1.87
2022-10-10T00:21:17.944Z,3.20
2022-10-10T00:23:44.880Z,0.44
2022-10-10T00:26:16.302Z,1.82
2022-10-10T00:28:45.748Z,2.19
2022-10-10T00:31:12.713Z,2.07
2022-10-10T00:33:39.932Z,2.50
2022-10-10T00:36:07.630Z,1.56
2022-10-10T00:38:35.380Z,3.10
2022-10-10T00:41:03.065Z,3.17
2022-10-10T00:43:30.144Z,1.79
2022-10-10T00:45:57.501Z,3.16
2022-10-10T00:48:39.898Z,3.14
2022-10-10T00:51:11.915Z,3.06
2022-10-10T00:54:05.873Z,2.11
2022-10-10T00:56:45.865Z,2.83
2022-10-10T00:59:13.017Z,1.27
2022-10-10T01:01:41.415Z,2.91
2022-10-10T01:04:32.592Z,2.98
2022-10-10T01:07:00.591Z,3.01
2022-10-10T01:09:29.264Z,-2.71
2022-10-10T01:12:08.853Z,2.48
2022-10-10T01:14:47.881Z,2.93
2022-10-10T01:17:14.743Z,3.03
2022-10-10T01:20:03.313Z,3.04
2022-10-10T01:22:57.014Z,2.65
2022-10-10T01:25:51.322Z,3.07
2022-10-10T01:28:43.237Z,3.12
2022-10-10T01:31:14.043Z,3.11
2022-10-10T01:33:53.042Z,3.11
2022-10-10T01:36:33.135Z,1.55
2022-10-10T01:39:27.862Z,1.84
2022-10-10T01:42:08.373Z,2.97
2022-10-10T01:44:35.332Z,2.57
2022-10-10T01:47:02.326Z,2.49
2022-10-10T01:49:33.076Z,2.83
2022-10-10T01:52:32.525Z,2.88
2022-10-10T01:55:15.118Z,2.84
2022-10-10T01:57:52.161Z,2.92
2022-10-10T02:00:19.827Z,1.85
2022-10-10T02:03:02.824Z,2.80
2022-10-10T02:05:49.711Z,2.74
2022-10-10T02:08:22.690Z,2.72
2022-10-10T02:10:52.997Z,2.70
2022-10-10T02:13:24.217Z,-0.01
2022-10-10T02:15:58.308Z,2.65
2022-10-10T02:18:29.352Z,-4.46
2022-10-10T02:20:56.529Z,-10.62
2022-10-10T02:23:24.012Z,-7.23
2022-10-10T02:25:54.728Z,-1.62
2022-10-10T02:28:30.196Z,2.27
2022-10-10T02:31:01.481Z,0.64
2022-10-10T02:33:41.979Z,-3.74
2022-10-10T02:36:10.073Z,-10.26
2022-10-10T02:38:38.316Z,1.78
2022-10-10T02:41:07.502Z,-5.43
2022-10-10T02:43:35.653Z,-0.08
2022-10-10T02:46:06.479Z,2.21
2022-10-10T02:48:33.403Z,2.72
2022-10-10T02:51:00.521Z,1.79
2022-10-10T02:53:28.328Z,2.65
2022-10-10T02:55:55.274Z,1.48
2022-10-10T02:58:22.256Z,2.17
2022-10-10T03:00:49.316Z,1.50
2022-10-10T03:03:16.228Z,1.22
2022-10-10T03:05:43.119Z,1.40
2022-10-10T03:08:11.863Z,-0.01
2022-10-10T03:10:39.393Z,2.19
2022-10-10T03:13:06.436Z,1.90
2022-10-10T03:15:33.361Z,0.63
2022-10-10T03:18:00.303Z,0.27
2022-10-10T03:20:27.255Z,1.44
2022-10-10T03:22:54.188Z,-3.61
2022-10-10T03:25:21.105Z,0.59
2022-10-10T03:27:48.550Z,1.02
2022-10-10T03:30:15.894Z,1.52
2022-10-10T03:32:42.823Z,1.61
2022-10-10T03:35:11.174Z,-2.18
2022-10-10T03:37:38.092Z,1.95
2022-10-10T03:40:05.362Z,2.12
2022-10-10T03:42:32.300Z,-1.36
2022-10-10T03:44:59.245Z,-0.15
2022-10-10T03:47:26.246Z,-2.73
2022-10-10T03:49:53.067Z,-3.11
2022-10-10T03:52:20.018Z,1.67
2022-10-10T03:54:47.297Z,2.38
2022-10-10T03:57:14.257Z,1.89
2022-10-10T03:59:41.148Z,-0.92
2022-10-10T04:02:08.550Z,1.47
2022-10-10T04:04:35.709Z,2.13
2022-10-10T04:07:02.686Z,1.80
2022-10-10T04:09:30.098Z,1.98
2022-10-10T04:11:57.286Z,1.34
2022-10-10T04:14:24.389Z,1.15
2022-10-10T04:16:51.354Z,1.73
2022-10-10T04:19:18.565Z,-2.20
2022-10-10T04:21:45.533Z,3.01
2022-10-10T04:24:12.654Z,2.95
2022-10-10T04:26:39.618Z,1.69
2022-10-10T04:29:06.607Z,2.88
2022-10-10T04:31:33.994Z,2.48
2022-10-10T04:34:00.933Z,-1.58
2022-10-10T04:36:28.169Z,2.45
2022-10-10T04:39:05.439Z,2.08
2022-10-10T04:41:32.405Z,2.66
2022-10-10T04:43:59.349Z,3.08
2022-10-10T04:46:26.399Z,-0.66
2022-10-10T04:48:53.351Z,1.76
2022-10-10T04:51:20.228Z,-3.77
2022-10-10T04:53:50.415Z,1.67
2022-10-10T04:56:17.805Z,-4.30
2022-10-10T04:58:44.865Z,-5.82
2022-10-10T05:01:11.850Z,2.10
2022-10-10T05:03:38.818Z,1.73
2022-10-10T05:06:06.314Z,-2.47
2022-10-10T05:08:33.521Z,2.21
2022-10-10T05:11:00.775Z,2.51
2022-10-10T05:13:27.961Z,0.38
2022-10-10T05:15:54.915Z,2.76
2022-10-10T05:18:22.583Z,3.33
2022-10-10T05:20:49.435Z,2.19
2022-10-10T05:23:16.951Z,-2.02
2022-10-10T05:25:45.703Z,3.59
2022-10-10T05:28:12.865Z,-4.57
2022-10-10T05:30:39.872Z,2.47
2022-10-10T05:33:06.909Z,2.35
2022-10-10T05:35:33.929Z,3.28
2022-10-10T05:38:01.082Z,2.97
2022-10-10T05:40:28.506Z,2.60
2022-10-10T05:42:55.541Z,2.98
2022-10-10T05:45:22.548Z,3.65
2022-10-10T05:47:49.553Z,-2.75
2022-10-10T05:50:30.028Z,-4.61
2022-10-10T05:52:57.419Z,4.03
2022-10-10T05:55:24.615Z,2.44
2022-10-10T05:57:51.593Z,3.84
2022-10-10T06:00:18.818Z,3.34
2022-10-10T06:02:46.278Z,4.17
2022-10-10T06:05:13.214Z,3.31
2022-10-10T06:08:02.432Z,3.23
2022-10-10T06:10:27.133Z,1.92
2022-10-10T06:12:54.306Z,3.19
2022-10-10T06:15:21.643Z,4.45
2022-10-10T06:17:48.593Z,3.65
2022-10-10T06:20:15.779Z,-1.61
2022-10-10T06:22:42.690Z,2.20
2022-10-10T06:25:29.042Z,4.67
2022-10-10T06:27:57.186Z,5.24
2022-10-10T06:30:24.289Z,4.18
2022-10-10T06:32:55.806Z,5.20
2022-10-10T06:35:23.679Z,3.69
2022-10-10T06:37:50.571Z,3.33
2022-10-10T06:40:17.981Z,4.61
2022-10-10T06:42:44.937Z,3.52
2022-10-10T06:45:11.869Z,3.03
2022-10-10T06:47:40.107Z,5.69
2022-10-10T06:50:07.295Z,5.48
2022-10-10T06:52:34.274Z,4.98
2022-10-10T06:55:01.189Z,4.41
2022-10-10T06:57:28.757Z,6.44
2022-10-10T06:59:55.798Z,6.14
2022-10-10T07:02:23.849Z,5.54
2022-10-10T07:04:51.212Z,4.41
2022-10-10T07:07:18.248Z,6.58
2022-10-10T07:09:45.178Z,5.34
2022-10-10T07:12:12.508Z,1.68
2022-10-10T07:14:39.468Z,-0.92
2022-10-10T07:17:06.382Z,6.51
2022-10-10T07:19:33.450Z,1.08
2022-10-10T07:22:00.407Z,4.98
2022-10-10T07:24:27.364Z,5.27
2022-10-10T07:27:03.479Z,5.68
2022-10-10T07:29:33.421Z,7.30
2022-10-10T07:32:00.588Z,7.27
2022-10-10T07:34:27.795Z,6.36
2022-10-10T07:36:54.748Z,3.70
2022-10-10T07:39:25.559Z,4.17
2022-10-10T07:41:52.753Z,7.60
2022-10-10T07:44:20.330Z,7.60
2022-10-10T07:46:47.787Z,7.74
2022-10-10T07:49:14.669Z,7.38
2022-10-10T07:51:41.849Z,5.10
2022-10-10T07:54:10.757Z,7.77
2022-10-10T07:56:37.753Z,6.74
2022-10-10T07:59:04.726Z,7.34
2022-10-10T08:01:31.750Z,4.75
2022-10-10T08:03:58.984Z,6.97
2022-10-10T08:06:26.161Z,7.82
2022-10-10T08:08:53.238Z,6.89
2022-10-10T08:11:22.169Z,7.46
2022-10-10T08:13:50.255Z,6.91
2022-10-10T08:16:18.173Z,7.13
2022-10-10T08:18:45.373Z,8.83
2022-10-10T08:21:14.718Z,8.79
2022-10-10T08:23:42.170Z,9.04
2022-10-10T08:26:11.144Z,7.91
2022-10-10T08:28:38.946Z,9.02
2022-10-10T08:31:08.138Z,9.34
2022-10-10T08:33:36.084Z,7.07
2022-10-10T08:36:14.927Z,8.70
2022-10-10T08:38:42.589Z,9.59
2022-10-10T08:41:24.684Z,9.76
2022-10-10T08:43:57.074Z,9.84
2022-10-10T08:47:15.623Z,9.95
2022-10-10T08:50:07.150Z,10.09
2022-10-10T08:52:53.987Z,10.23
2022-10-10T08:55:44.216Z,10.06
2022-10-10T08:58:24.499Z,10.10
2022-10-10T09:00:57.265Z,10.55
2022-10-10T09:03:42.502Z,10.57
2022-10-10T09:06:37.495Z,10.66
2022-10-10T09:09:10.587Z,10.73
2022-10-10T09:12:07.096Z,10.80
2022-10-10T09:14:45.074Z,10.59
2022-10-10T09:17:34.924Z,8.22
2022-10-10T09:20:07.996Z,10.93
2022-10-10T09:22:52.292Z,10.93
2022-10-10T09:25:33.089Z,10.23
2022-10-10T09:28:19.639Z,11.39
2022-10-10T09:30:53.067Z,9.64
2022-10-10T09:33:28.767Z,11.50
2022-10-10T09:35:59.049Z,10.76
2022-10-10T09:38:37.898Z,11.69
2022-10-10T09:41:39.690Z,11.83
2022-10-10T09:44:11.852Z,10.08
2022-10-10T09:46:39.064Z,11.84
2022-10-10T09:49:06.332Z,11.41
2022-10-10T09:51:34.340Z,11.18
2022-10-10T09:54:01.736Z,12.04
2022-10-10T09:56:35.235Z,10.29
2022-10-10T09:59:02.280Z,10.69
2022-10-10T10:01:33.264Z,12.18
2022-10-10T10:04:30.924Z,11.74
2022-10-10T10:07:19.587Z,10.29
2022-10-10T10:09:59.534Z,11.84
2022-10-10T10:12:37.587Z,11.42
2022-10-10T10:15:07.580Z,12.03
2022-10-10T10:17:34.504Z,11.27
2022-10-10T10:20:01.479Z,8.17
2022-10-10T10:22:54.719Z,12.58
2022-10-10T10:25:39.134Z,12.76
2022-10-10T10:28:12.241Z,12.78
2022-10-10T10:30:40.557Z,12.11
2022-10-10T10:33:33.557Z,12.44
2022-10-10T10:36:19.456Z,12.68
2022-10-10T10:39:05.177Z,12.69
2022-10-10T10:41:38.237Z,12.83
2022-10-10T10:44:05.135Z,12.82
2022-10-10T10:46:38.132Z,12.86
2022-10-10T10:49:04.998Z,12.85
2022-10-10T10:51:41.192Z,12.85
2022-10-10T10:54:25.511Z,12.95
2022-10-10T10:57:28.817Z,12.93
2022-10-10T11:00:22.275Z,12.97
2022-10-10T11:03:14.865Z,12.72
2022-10-10T11:06:10.592Z,13.10
2022-10-10T11:09:45.050Z,13.08
2022-10-10T11:12:14.166Z,13.11
2022-10-10T11:14:51.407Z,13.15
2022-10-10T11:17:26.909Z,11.26
2022-10-10T11:20:17.198Z,10.56
2022-10-10T11:22:52.519Z,11.93
2022-10-10T11:25:47.827Z,12.99
2022-10-10T11:28:21.386Z,13.35
2022-10-10T11:30:58.350Z,13.17
2022-10-10T11:33:39.124Z,13.14
2022-10-10T11:36:16.144Z,12.63
2022-10-10T11:38:54.952Z,13.40
2022-10-10T11:41:27.435Z,11.11
2022-10-10T11:44:04.989Z,13.22
2022-10-10T11:46:54.783Z,13.52
2022-10-10T11:49:37.132Z,12.96
2022-10-10T11:52:35.133Z,12.64
2022-10-10T11:55:24.745Z,13.52
2022-10-10T11:58:39.339Z,13.58
2022-10-10T12:01:19.402Z,13.53
2022-10-10T12:03:46.414Z,12.42
2022-10-10T12:06:28.206Z,13.60
2022-10-10T12:09:04.598Z,13.60
2022-10-10T12:11:37.456Z,13.59
2022-10-10T12:14:09.408Z,13.24
2022-10-10T12:16:38.114Z,13.71
2022-10-10T12:19:09.316Z,13.78
2022-10-10T12:21:59.743Z,13.80
2022-10-10T12:24:29.866Z,13.81
2022-10-10T12:26:56.801Z,13.87
2022-10-10T12:30:08.733Z,13.82
2022-10-10T12:32:46.107Z,13.86
2022-10-10T12:35:42.363Z,13.80
2022-10-10T12:38:11.476Z,13.85
2022-10-10T12:41:05.205Z,13.82
2022-10-10T12:43:48.417Z,13.87
2022-10-10T12:46:21.073Z,13.91
2022-10-10T12:49:16.951Z,9.97
2022-10-10T12:51:44.943Z,11.82
2022-10-10T12:54:28.127Z,13.34
2022-10-10T12:57:07.949Z,12.32
2022-10-10T12:59:37.227Z,13.97
2022-10-10T13:02:24.693Z,13.28
2022-10-10T13:04:56.421Z,12.97
2022-10-10T13:07:24.998Z,13.07
2022-10-10T13:09:55.054Z,13.90
2022-10-10T13:12:27.908Z,13.14
2022-10-10T13:14:55.818Z,12.95
2022-10-10T13:17:24.548Z,13.96
2022-10-10T13:19:52.973Z,12.70
2022-10-10T13:22:21.044Z,12.21
2022-10-10T13:24:49.536Z,12.56
2022-10-10T13:27:26.802Z,11.58
2022-10-10T13:29:55.461Z,13.73
2022-10-10T13:32:29.577Z,13.62
2022-10-10T13:35:06.613Z,12.86
2022-10-10T13:37:34.535Z,11.81
2022-10-10T13:40:01.974Z,12.48
2022-10-10T13:42:36.170Z,13.93
2022-10-10T13:45:29.204Z,13.93
2022-10-10T13:48:03.629Z,13.94
2022-10-10T13:50:53.409Z,13.93
2022-10-10T13:53:26.865Z,13.93
2022-10-10T13:56:02.706Z,13.89
2022-10-10T13:58:52.796Z,13.64
2022-10-10T14:01:34.992Z,13.88
2022-10-10T14:04:15.558Z,13.79
2022-10-10T14:06:59.746Z,12.84
2022-10-10T14:09:41.824Z,13.77
2022-10-10T14:12:17.574Z,12.87
2022-10-10T14:14:48.307Z,13.73
2022-10-10T14:17:16.204Z,13.47
2022-10-10T14:19:45.408Z,13.67
2022-10-10T14:22:12.526Z,13.29
2022-10-10T14:24:39.508Z,13.21
2022-10-10T14:27:20.722Z,13.09
2022-10-10T14:29:48.159Z,12.56
2022-10-10T14:32:16.181Z,13.47
2022-10-10T14:34:43.448Z,13.42
2022-10-10T14:37:29.382Z,12.54
2022-10-10T14:39:56.819Z,13.09
2022-10-10T14:42:25.610Z,9.27
2022-10-10T14:44:52.773Z,12.30
2022-10-10T14:47:22.350Z,11.07
2022-10-10T14:49:49.717Z,10.18
2022-10-10T14:52:16.707Z,13.17
2022-10-10T14:54:43.700Z,13.08
2022-10-10T14:57:13.488Z,12.68
2022-10-10T14:59:48.426Z,12.54
2022-10-10T15:02:21.585Z,9.33
2022-10-10T15:04:49.274Z,7.42
2022-10-10T15:07:16.718Z,12.73
2022-10-10T15:10:27.477Z,11.59
2022-10-10T15:12:32.985Z,11.28
2022-10-10T15:14:59.930Z,11.84
2022-10-10T15:17:27.594Z,11.60
2022-10-10T15:19:54.534Z,11.31
2022-10-10T15:22:21.484Z,10.02
2022-10-10T15:24:48.460Z,8.02
2022-10-10T15:27:15.484Z,9.78
2022-10-10T15:29:42.488Z,11.88
2022-10-10T15:32:09.908Z,9.42
2022-10-10T15:34:37.012Z,10.70
2022-10-10T15:37:04.490Z,10.15
2022-10-10T15:39:31.766Z,10.31
2022-10-10T15:42:06.998Z,10.64
2022-10-10T15:44:36.906Z,10.34
2022-10-10T15:47:04.032Z,11.66
2022-10-10T15:49:30.977Z,11.62
2022-10-10T15:51:57.935Z,9.08
2022-10-10T15:54:24.933Z,5.57
2022-10-10T15:56:51.960Z,10.21
2022-10-10T16:01:45.762Z,9.22
2022-10-10T16:04:12.876Z,11.24
2022-10-10T16:06:39.796Z,9.49
2022-10-10T16:09:27.558Z,9.96
2022-10-10T16:11:53.787Z,10.13
2022-10-10T16:14:20.732Z,8.30
2022-10-10T16:16:47.726Z,10.60
2022-10-10T16:19:14.903Z,2.60
2022-10-10T16:21:42.003Z,7.76
2022-10-10T16:24:10.163Z,9.06
2022-10-10T16:26:38.338Z,9.34
2022-10-10T16:29:07.206Z,10.48
2022-10-10T16:31:39.427Z,4.95
2022-10-10T16:34:07.691Z,10.38
2022-10-10T16:36:37.392Z,8.73
2022-10-10T16:39:05.378Z,6.93
2022-10-10T16:41:49.539Z,8.85
2022-10-10T16:44:17.891Z,8.24
2022-10-10T16:46:45.122Z,10.20
2022-10-10T16:49:20.957Z,9.46
2022-10-10T16:51:48.451Z,7.71
2022-10-10T16:54:15.947Z,10.08
2022-10-10T16:56:42.895Z,7.27
2022-10-10T16:59:09.841Z,8.72
2022-10-10T17:01:37.060Z,8.74
2022-10-10T17:04:04.747Z,9.62
2022-10-10T17:06:38.048Z,8.89
2022-10-10T17:09:07.695Z,10.00
2022-10-10T17:11:35.332Z,1.72
2022-10-10T17:14:02.518Z,5.61
2022-10-10T17:19:17.749Z,9.70
2022-10-10T17:21:44.667Z,8.80
2022-10-10T17:24:11.649Z,8.69
2022-10-10T17:26:38.687Z,5.83
2022-10-10T17:29:05.859Z,5.68
2022-10-10T17:31:33.033Z,9.85
2022-10-10T17:34:00.225Z,8.70
2022-10-10T17:36:28.447Z,8.17
2022-10-10T17:39:02.310Z,9.12
2022-10-10T17:41:29.798Z,9.35
2022-10-10T17:43:56.970Z,9.30
2022-10-10T17:46:36.585Z,9.23
2022-10-10T17:49:06.845Z,3.75
2022-10-10T17:51:35.569Z,9.34
2022-10-10T17:54:03.726Z,9.57
2022-10-10T17:56:31.706Z,8.89
2022-10-10T17:59:01.783Z,7.27
2022-10-10T18:01:31.118Z,5.70
2022-10-10T18:03:58.860Z,8.39
2022-10-10T18:06:26.584Z,9.43
2022-10-10T18:08:54.511Z,9.39
2022-10-10T18:11:24.374Z,9.39
2022-10-10T18:13:52.415Z,9.36
2022-10-10T18:16:22.833Z,9.29
2022-10-10T18:18:51.910Z,9.29
2022-10-10T18:21:21.535Z,9.24
2022-10-10T18:23:49.123Z,9.23
2022-10-10T18:26:19.601Z,9.08
2022-10-10T18:28:47.097Z,9.20
2022-10-10T18:31:20.193Z,9.18
2022-10-10T18:33:47.698Z,8.63
2022-10-10T18:36:17.624Z,9.14
2022-10-10T18:38:44.563Z,7.90
2022-10-10T18:41:18.480Z,1.62
2022-10-10T18:43:46.491Z,8.59
2022-10-10T18:46:16.207Z,9.02
2022-10-10T18:48:44.086Z,9.00
2022-10-10T18:51:18.907Z,9.01
2022-10-10T18:53:47.081Z,9.02
2022-10-10T18:56:17.071Z,8.60
2022-10-10T18:58:43.994Z,8.05
2022-10-10T19:01:12.862Z,8.97
2022-10-10T19:03:40.990Z,7.84
2022-10-10T19:06:11.037Z,8.26
2022-10-10T19:08:38.191Z,1.24
2022-10-10T19:11:07.331Z,8.27
2022-10-10T19:13:35.167Z,7.34
2022-10-10T19:16:06.933Z,8.57
2022-10-10T19:18:34.362Z,7.91
2022-10-10T19:21:04.092Z,8.15
2022-10-10T19:23:32.501Z,8.94
2022-10-10T19:26:05.198Z,7.70
2022-10-10T19:28:32.961Z,8.41
2022-10-10T19:31:06.714Z,6.81
2022-10-10T19:33:34.627Z,5.40
2022-10-10T19:36:04.477Z,7.97
2022-10-10T19:38:34.473Z,8.50
2022-10-10T19:41:01.802Z,6.93
2022-10-10T19:43:29.408Z,7.20
2022-10-10T19:45:56.555Z,8.81
2022-10-10T19:48:25.149Z,7.86
2022-10-10T19:50:54.194Z,7.74
2022-10-10T19:53:21.297Z,7.18
2022-10-10T19:56:00.063Z,6.25
2022-10-10T19:58:28.090Z,6.55
2022-10-10T20:00:55.347Z,5.74
2022-10-10T20:03:22.386Z,7.46
2022-10-10T20:05:49.734Z,7.02
2022-10-10T20:08:16.861Z,3.27
2022-10-10T20:10:44.764Z,7.73
2022-10-10T20:13:15.207Z,7.21
2022-10-10T20:15:44.396Z,8.25
2022-10-10T20:18:12.877Z,8.69
2022-10-10T20:20:41.991Z,8.30
2022-10-10T20:23:09.683Z,7.42
2022-10-10T20:25:41.710Z,7.47
2022-10-10T20:28:09.557Z,8.66
2022-10-10T20:30:40.590Z,8.66
2022-10-10T20:33:07.553Z,7.80
2022-10-10T20:35:35.213Z,7.83
2022-10-10T20:38:03.414Z,7.37
2022-10-10T20:40:30.862Z,5.51
2022-10-10T20:42:58.027Z,8.25
2022-10-10T20:45:25.030Z,7.97
2022-10-10T20:47:52.007Z,6.25
2022-10-10T20:50:18.996Z,1.95
2022-10-10T20:52:45.912Z,5.64
2022-10-10T20:55:12.896Z,7.13
2022-10-10T20:57:39.918Z,8.62
2022-10-10T21:00:07.580Z,7.00
2022-10-10T21:02:35.228Z,6.82
2022-10-10T21:05:02.232Z,5.54
2022-10-10T21:07:29.711Z,8.55
2022-10-10T21:09:56.941Z,8.18
2022-10-10T21:12:23.906Z,7.26
2022-10-10T21:14:50.853Z,6.46
2022-10-10T21:17:17.769Z,8.21
2022-10-10T21:19:44.946Z,8.59
2022-10-10T21:22:12.026Z,2.33
2022-10-10T21:24:39.711Z,7.35
2022-10-10T21:27:06.720Z,8.18
2022-10-10T21:29:33.846Z,7.24
2022-10-10T21:32:02.387Z,6.60
2022-10-10T21:34:29.312Z,7.20
2022-10-10T21:36:56.886Z,8.52
2022-10-10T21:39:24.873Z,7.41
2022-10-10T21:41:51.812Z,5.86
2022-10-10T21:44:18.659Z,7.18
2022-10-10T21:46:45.705Z,6.80
2022-10-10T21:49:14.610Z,8.40
2022-10-10T21:51:43.587Z,8.43
2022-10-10T21:54:10.811Z,7.68
2022-10-10T21:56:38.813Z,7.24
2022-10-10T21:59:06.160Z,7.98
2022-10-10T22:01:33.511Z,7.88
2022-10-10T22:04:02.109Z,7.01
2022-10-10T22:06:29.511Z,6.97
2022-10-10T22:08:58.752Z,6.55
2022-10-10T22:11:27.246Z,5.82
2022-10-10T22:13:54.204Z,7.17
2022-10-10T22:16:21.333Z,6.36
2022-10-10T22:18:48.517Z,7.34
2022-10-10T22:21:17.422Z,7.49
2022-10-10T22:23:45.440Z,7.50
2022-10-10T22:26:14.682Z,8.24
2022-10-10T22:28:42.279Z,8.28
2022-10-10T22:31:11.209Z,8.27
2022-10-10T22:33:38.421Z,6.66
2022-10-10T22:36:07.173Z,3.78
2022-10-10T22:38:38.794Z,6.19
2022-10-10T22:41:05.732Z,2.60
2022-10-10T22:43:33.194Z,7.97
2022-10-10T22:46:00.287Z,8.34
2022-10-10T22:48:27.781Z,7.36
2022-10-10T22:51:13.499Z,5.29
2022-10-10T22:53:41.438Z,7.18
2022-10-10T22:56:09.895Z,8.24
2022-10-10T22:58:37.589Z,8.23
2022-10-10T23:01:06.321Z,8.23
2022-10-10T23:03:33.393Z,4.06
2022-10-10T23:06:00.432Z,5.18
2022-10-10T23:08:27.443Z,8.17
2022-10-10T23:10:54.333Z,-1.52
2022-10-10T23:13:21.683Z,7.73
2022-10-10T23:15:48.667Z,6.88
2022-10-10T23:18:15.635Z,6.55
2022-10-10T23:20:42.598Z,6.68
2022-10-10T23:23:09.750Z,6.28
2022-10-10T23:25:41.484Z,7.86
2022-10-10T23:28:09.145Z,8.01
2022-10-10T23:30:39.904Z,7.02
2022-10-10T23:33:07.089Z,4.31
2022-10-10T23:35:34.929Z,6.62
2022-10-10T23:38:02.160Z,6.06
2022-10-10T23:40:29.336Z,6.92
2022-10-10T23:42:56.338Z,6.17
2022-10-10T23:45:23.282Z,7.91
2022-10-10T23:47:50.309Z,7.92
2022-10-10T23:50:17.392Z,3.08
2022-10-10T23:52:44.331Z,5.32
2022-10-10T23:55:11.260Z,6.75
2022-10-10T23:57:38.251Z,6.05
